PXE weather

Pista Campeche
Mexicali, Baja California, Mexico

Public forecast

Using degrees Celsius for public forecast. Weather courtesy of forecast.io.

Closest aviation weather report (METAR) to Pista Campeche

Closest report is General Rodolfo Sánchez Taboada International Airport, 13.2 nm (24.5 km) WNW. Retrieved 2020/02/21 23:40 UTC (26 minutes ago):

MMML 212340Z 13006KT 10SM BKN140 OVC200 26/M01 A2995 RMK SLP142 57020 987 8/017 BINOVC

Closest aviation forecast (TAF) to Pista Campeche

Closest forecast is General Rodolfo Sánchez Taboada International Airport, 13.2 nm (24.5 km) WNW. Retrieved 2020/02/21 18:36 UTC (6 hours ago):

TAF MMML 211630Z 2118/2218 36005KT P6SM BKN220 BECMG 2120/2121 02012KT FM220200 18005KT P6SM SCT100 BKN220 FM220800 17010KT P6SM BKN080 BKN220 FM221400 15015KT P6SM SCT080 BKN220